»·PEaware :: N49LP KSLE-KAWO

N49LP :: KSLE-KAWO

FLIGHT INFORMATION

Flight Status: Arrived
Operator: Privately registered:
United States
More flights under this callsign
Pilot: Les P. (123)
Aircraft: BEECH AIRCRAFT BONANZA
(BE35)
More flights by this aircraft type
Origin: KSLE McNary
United States
Destination: KAWO Arlington Mun
United States
More flights between these airports :: More routes between these airports
Route: +UBG V165 OLM SEA V23 PAE
File this flight plan on PilotEdge
Remarks:
Altitude:
(Current/Filed)
8,000ft
Speed:
(Current/Filed)
165kts
Departed: 08-Aug-20 11:55 AM
Arrived: 08-Aug-20 01:22 PM
Distance/Time
Traveled:
198nm/1:27
Distance/Time
To Go:
Arrived

Flight Plot

Page will automatically refresh every two minutes.

Flight plan parsing failed; only flown route is shown


Map Options




Map Legend


Flown Route
Filed Route
Departure Airport
Arrival Airport
Navaid (VOR, NDB)
Fix

Horizontal Profiles

Position Reports

Time Latitude Longitude Heading Altitude Ground
Speed
08-Aug-20 11:18 44.909232 -123.007477 250 217ft 0kts
08-Aug-20 11:20 44.909232 -123.007477 250 217ft 0kts
08-Aug-20 11:20 44.909232 -123.007477 250 217ft 0kts
08-Aug-20 11:21 44.909232 -123.007477 250 217ft 0kts
08-Aug-20 11:22 44.909232 -123.007477 250 217ft 0kts
08-Aug-20 11:23 44.909232 -123.007477 250 217ft 0kts
08-Aug-20 11:24 44.909232 -123.007477 250 217ft 0kts
08-Aug-20 11:25 44.909232 -123.007477 250 217ft 0kts
08-Aug-20 11:26 44.909232 -123.007477 250 217ft 0kts
08-Aug-20 11:27 44.909232 -123.007477 250 217ft 0kts
08-Aug-20 11:28 44.909232 -123.007477 250 217ft 0kts
08-Aug-20 11:29 44.909232 -123.007477 250 217ft 0kts
08-Aug-20 11:30 44.909232 -123.007477 250 217ft 0kts
08-Aug-20 11:31 44.909232 -123.007477 250 217ft 0kts
08-Aug-20 11:32 44.909232 -123.007477 250 217ft 0kts
08-Aug-20 11:33 44.909231 -123.007478 250 217ft 0kts
08-Aug-20 11:34 44.909230 -123.007482 250 217ft 0kts
08-Aug-20 11:35 44.909229 -123.007486 250 217ft 0kts
08-Aug-20 11:36 44.909228 -123.007490 250 217ft 0kts
08-Aug-20 11:37 44.909227 -123.007494 250 217ft 0kts
08-Aug-20 11:38 44.909226 -123.007498 250 217ft 0kts
08-Aug-20 11:39 44.909225 -123.007502 250 217ft 0kts
08-Aug-20 11:40 44.909224 -123.007506 250 217ft 0kts
08-Aug-20 11:41 44.909224 -123.007509 250 217ft 0kts
08-Aug-20 11:42 44.909223 -123.007513 250 217ft 0kts
08-Aug-20 11:43 44.909222 -123.007517 250 217ft 0kts
08-Aug-20 11:44 44.909221 -123.007521 250 217ft 0kts
08-Aug-20 11:45 44.909220 -123.007525 250 217ft 0kts
08-Aug-20 11:46 44.909219 -123.007529 250 217ft 0kts
08-Aug-20 11:47 44.908641 -123.007069 129 217ft 10kts
08-Aug-20 11:48 44.905898 -123.005463 181 217ft 13kts
08-Aug-20 11:49 44.902634 -123.004901 145 217ft 10kts
08-Aug-20 11:50 44.902554 -123.004675 96 217ft 0kts
08-Aug-20 11:51 44.902553 -123.004667 96 217ft 0kts
08-Aug-20 11:52 44.902542 -123.004423 95 217ft 0kts
08-Aug-20 11:53 44.902553 -123.003569 21 217ft 10kts
08-Aug-20 11:54 44.922005 -123.002020 9 841ft 92kts
08-Aug-20 11:55 44.950770 -123.000002 4 1629ft 115kts
08-Aug-20 11:56 44.983066 -122.998366 2 2494ft 113kts
08-Aug-20 11:57 45.013515 -122.996893 0 3501ft 104kts
08-Aug-20 11:58 45.041412 -122.995438 359 4481ft 100kts
08-Aug-20 11:59 45.069178 -122.993852 0 5431ft 100kts
08-Aug-20 12:00 45.097051 -122.992381 359 6425ft 100kts
08-Aug-20 12:01 45.125037 -122.990837 359 7397ft 101kts
08-Aug-20 12:02 45.154999 -122.989221 359 7992ft 128kts
08-Aug-20 12:03 45.194844 -122.986877 0 8006ft 148kts
08-Aug-20 12:04 45.236678 -122.984573 0 8004ft 152kts
08-Aug-20 12:05 45.279036 -122.982343 0 8005ft 151kts
08-Aug-20 12:06 45.321306 -122.979898 0 8004ft 151kts
08-Aug-20 12:07 45.363156 -122.979447 351 8005ft 150kts
08-Aug-20 12:08 45.404875 -122.984680 353 8004ft 150kts
08-Aug-20 12:09 45.446754 -122.989612 352 8004ft 150kts
08-Aug-20 12:10 45.489924 -122.995344 351 7597ft 164kts
08-Aug-20 12:11 45.535408 -123.001338 353 6887ft 163kts
08-Aug-20 12:12 45.580269 -123.006675 353 6130ft 161kts
08-Aug-20 12:13 45.622634 -123.011578 352 6000ft 148kts
08-Aug-20 12:14 45.663362 -123.016974 353 5999ft 146kts
08-Aug-20 12:15 45.704215 -123.021738 352 5999ft 146kts
08-Aug-20 12:16 45.745035 -123.027053 352 5994ft 147kts
08-Aug-20 12:17 45.785924 -123.031987 353 5994ft 147kts
08-Aug-20 12:18 45.826640 -123.037256 352 5984ft 147kts
08-Aug-20 12:19 45.867420 -123.042482 352 5992ft 147kts
08-Aug-20 12:20 45.908207 -123.047688 353 5996ft 146kts
08-Aug-20 12:21 45.948731 -123.052736 353 5999ft 146kts
08-Aug-20 12:22 45.989450 -123.057868 352 5999ft 146kts
08-Aug-20 12:23 46.030196 -123.063145 352 6005ft 146kts
08-Aug-20 12:24 46.070937 -123.068292 351 6009ft 147kts
08-Aug-20 12:25 46.111706 -123.073557 353 6010ft 147kts
08-Aug-20 12:26 46.152544 -123.078787 352 6011ft 147kts
08-Aug-20 12:27 46.193315 -123.083943 352 6011ft 147kts
08-Aug-20 12:28 46.234085 -123.089151 352 6013ft 147kts
08-Aug-20 12:29 46.275060 -123.094607 352 6014ft 147kts
08-Aug-20 12:30 46.316570 -123.099908 352 6020ft 150kts
08-Aug-20 12:31 46.358027 -123.104981 353 6017ft 147kts
08-Aug-20 12:32 46.398572 -123.110233 351 6017ft 145kts
08-Aug-20 12:33 46.438829 -123.108527 12 6014ft 148kts
08-Aug-20 12:34 46.478604 -123.092877 11 6009ft 148kts
08-Aug-20 12:35 46.518595 -123.077582 11 6009ft 148kts
08-Aug-20 12:36 46.558534 -123.062149 11 6016ft 148kts
08-Aug-20 12:37 46.598662 -123.046691 11 6012ft 149kts
08-Aug-20 12:38 46.638729 -123.031199 11 6009ft 149kts
08-Aug-20 12:39 46.678921 -123.015664 12 6007ft 149kts
08-Aug-20 12:40 46.718997 -123.000149 12 6014ft 149kts
08-Aug-20 12:41 46.759279 -122.984581 12 6013ft 150kts
08-Aug-20 12:42 46.799627 -122.968880 12 6011ft 149kts
08-Aug-20 12:43 46.839830 -122.953193 12 6022ft 149kts
08-Aug-20 12:44 46.879896 -122.937523 12 6015ft 149kts
08-Aug-20 12:45 46.920053 -122.921852 12 6023ft 149kts
08-Aug-20 12:46 46.960338 -122.906165 12 6020ft 150kts
08-Aug-20 12:47 46.994880 -122.871987 38 6021ft 153kts
08-Aug-20 12:48 47.027374 -122.831276 38 6016ft 154kts
08-Aug-20 12:49 47.059681 -122.790361 37 6018ft 153kts
08-Aug-20 12:50 47.092094 -122.749232 38 6020ft 153kts
08-Aug-20 12:51 47.124397 -122.708216 38 6027ft 153kts
08-Aug-20 12:52 47.156677 -122.667153 38 6023ft 153kts
08-Aug-20 12:53 47.188966 -122.625991 38 6022ft 153kts
08-Aug-20 12:54 47.221392 -122.584724 39 6032ft 153kts
08-Aug-20 12:55 47.253663 -122.543441 38 6041ft 153kts
08-Aug-20 12:56 47.285782 -122.502170 38 6041ft 154kts
08-Aug-20 12:57 47.318186 -122.460528 38 6036ft 153kts
08-Aug-20 12:58 47.350424 -122.419051 38 6043ft 154kts
08-Aug-20 12:59 47.382789 -122.377397 38 6033ft 154kts
08-Aug-20 13:00 47.414913 -122.335932 39 6039ft 153kts
08-Aug-20 13:02 47.450872 -122.308388 357 6042ft 150kts
08-Aug-20 13:03 47.492949 -122.306035 1 6013ft 151kts
08-Aug-20 13:04 47.535286 -122.303083 1 5758ft 159kts
08-Aug-20 13:05 47.579228 -122.300173 1 4998ft 157kts
08-Aug-20 13:06 47.622308 -122.297318 1 4159ft 153kts
08-Aug-20 13:07 47.664574 -122.294521 1 3284ft 150kts
08-Aug-20 13:08 47.706605 -122.291810 1 3010ft 147kts
08-Aug-20 13:09 47.746628 -122.289157 1 3010ft 142kts
08-Aug-20 13:10 47.786174 -122.286575 0 3012ft 141kts
08-Aug-20 13:11 47.825468 -122.283991 0 3012ft 142kts
08-Aug-20 13:12 47.865071 -122.281384 0 3014ft 141kts
08-Aug-20 13:13 47.904423 -122.278762 0 3026ft 141kts
08-Aug-20 13:14 47.934113 -122.244826 54 2850ft 152kts
08-Aug-20 13:15 47.957792 -122.191911 54 2133ft 152kts
08-Aug-20 13:16 47.984118 -122.152035 0 1893ft 135kts
08-Aug-20 13:17 48.020950 -122.152901 357 1705ft 125kts
08-Aug-20 13:18 48.054818 -122.153840 358 1699ft 119kts
08-Aug-20 13:19 48.087925 -122.154695 356 1493ft 118kts
08-Aug-20 13:20 48.119924 -122.155759 0 969ft 106kts
08-Aug-20 13:20 48.142509 -122.155867 357 426ft 91kts
08-Aug-20 13:22 48.163686 -122.156344 358 134ft 24kts
08-Aug-20 13:23 48.164546 -122.155482 89 134ft 0kts
08-Aug-20 13:23 48.126759 -122.155577 359 799ft 99kts
08-Aug-20 13:24 48.152370 -122.156103 357 211ft 80kts
08-Aug-20 13:26 48.164544 -122.155593 88 134ft 4kts
08-Aug-20 13:26 48.164546 -122.155480 89 134ft 0kts
08-Aug-20 13:27 48.164546 -122.155477 89 134ft 0kts
08-Aug-20 13:28 48.164558 -122.154615 114 134ft 8kts
08-Aug-20 13:29 48.161757 -122.154356 178 134ft 11kts
08-Aug-20 13:30 48.159800 -122.154329 165 134ft 7kts
08-Aug-20 13:31 48.159362 -122.153137 83 134ft 0kts
08-Aug-20 13:32 48.159362 -122.153135 83 134ft 0kts
08-Aug-20 13:33 48.159362 -122.153135 83 134ft 0kts

Navigation Log

Ident Type
Flight plan parsing failed, navigation log unavailable